Time;durP1;ratioP1;P1;durP2;ratioP2;P2;SDS_P1;SDS_P2;PMS_P1;PMS_P2;Temp;Humidity;BMP_temperature;BMP_pressure;BME280_temperature;BME280_humidity;BME280_pressure;Samples;Min_cycle;Max_cycle;Signal;HPM_P1;HPM_P2
2022/03/20 00:04:30;;;;;;;31.55;19.33;;;;;;;4.01;50.46;102391.81;8521558;33;21077;-73
2022/03/20 00:09:35;;;;;;;33.53;20.42;;;;;;;3.94;50.54;102394.56;8533110;33;20433;-72
2022/03/20 00:14:38;;;;;;;33.50;19.50;;;;;;;3.87;50.69;102395.63;8541607;33;20411;-73
2022/03/20 00:19:44;;;;;;;31.13;18.33;;;;;;;3.83;50.41;102388.59;8542115;33;20542;-73
2022/03/20 00:24:47;;;;;;;30.95;18.05;;;;;;;3.81;50.46;102377.13;8538555;33;20492;-72
2022/03/20 00:29:51;;;;;;;35.95;20.40;;;;;;;3.76;50.44;102375.47;8537913;33;20169;-72
2022/03/20 00:34:59;;;;;;;31.90;18.45;;;;;;;3.64;50.38;102366.84;8537142;33;20673;-72
2022/03/20 00:40:03;;;;;;;28.23;16.63;;;;;;;3.57;50.27;102362.56;8536768;33;20420;-73
2022/03/20 00:45:07;;;;;;;33.25;17.48;;;;;;;3.59;49.54;102352.75;8539027;33;21850;-72
2022/03/20 00:50:12;;;;;;;31.67;16.52;;;;;;;3.46;48.80;102349.50;8539191;33;20503;-72
2022/03/20 00:55:15;;;;;;;27.80;15.82;;;;;;;3.49;48.29;102348.56;8539705;33;20501;-72
2022/03/20 01:00:18;;;;;;;27.73;18.42;;;;;;;3.48;48.23;102336.16;8538504;33;20167;-72
2022/03/20 01:05:23;;;;;;;32.58;16.38;;;;;;;3.39;47.96;102321.28;8535063;33;20954;-72
2022/03/20 01:10:26;;;;;;;30.88;16.30;;;;;;;3.37;47.59;102303.63;8530415;33;20405;-71
2022/03/20 01:15:31;;;;;;;29.05;16.23;;;;;;;3.32;48.12;102308.16;8542177;33;20301;-72
2022/03/20 01:20:36;;;;;;;26.88;17.65;;;;;;;3.21;47.91;102295.06;8542067;33;20147;-72
2022/03/20 01:25:40;;;;;;;28.37;16.93;;;;;;;3.11;47.82;102313.00;8567211;33;20415;-72
2022/03/20 01:30:44;;;;;;;25.30;16.58;;;;;;;3.21;47.91;102301.28;8573323;33;21089;-71
2022/03/20 01:35:48;;;;;;;29.90;18.03;;;;;;;3.06;47.86;102297.13;8572851;33;20536;-72
2022/03/20 01:40:52;;;;;;;27.30;16.93;;;;;;;3.06;47.96;102281.19;8567943;33;20183;-72
2022/03/20 01:45:55;;;;;;;28.57;16.13;;;;;;;2.94;48.23;102268.19;8565805;33;20502;-73
2022/03/20 01:51:00;;;;;;;31.55;16.40;;;;;;;3.00;48.19;102261.88;8566977;33;20352;-72
2022/03/20 01:56:04;;;;;;;33.13;17.53;;;;;;;2.91;48.00;102251.41;8569704;33;20128;-73
2022/03/20 02:01:07;;;;;;;29.30;16.17;;;;;;;2.83;47.37;102248.94;8565015;33;20424;-73
2022/03/20 02:06:11;;;;;;;28.98;16.95;;;;;;;2.92;47.28;102246.09;8562585;33;20135;-73
2022/03/20 02:11:15;;;;;;;26.00;16.90;;;;;;;2.86;46.87;102235.59;8563649;33;21068;-72
2022/03/20 02:16:19;;;;;;;28.03;16.87;;;;;;;2.80;47.30;102225.97;8565622;33;20417;-72
2022/03/20 02:21:40;;;;;;;28.30;16.70;;;;;;;2.84;47.29;102213.50;8566770;33;20410;-72
2022/03/20 02:26:43;;;;;;;27.90;16.43;;;;;;;2.75;46.94;102205.72;8566885;33;20685;-73
2022/03/20 02:31:46;;;;;;;24.07;15.83;;;;;;;2.71;47.18;102202.25;8566078;33;20251;-73
2022/03/20 02:36:51;;;;;;;29.77;16.37;;;;;;;2.59;46.96;102207.78;8565868;33;21208;-72
2022/03/20 02:41:55;;;;;;;28.20;15.80;;;;;;;2.59;47.08;102199.84;8566257;33;20205;-72
2022/03/20 02:47:02;;;;;;;28.98;16.55;;;;;;;2.55;46.91;102192.81;8564912;33;20391;-72
2022/03/20 02:52:08;;;;;;;32.37;16.47;;;;;;;2.50;47.08;102184.06;8566134;33;20147;-72
2022/03/20 02:57:11;;;;;;;29.58;16.85;;;;;;;2.44;47.21;102176.19;8565641;33;20193;-72
2022/03/20 03:02:14;;;;;;;27.70;16.27;;;;;;;2.40;47.56;102175.38;8565486;33;20455;-72
2022/03/20 03:07:18;;;;;;;29.00;16.00;;;;;;;2.32;47.66;102166.69;8565455;33;20139;-73
2022/03/20 03:12:22;;;;;;;30.43;16.77;;;;;;;2.21;47.84;102163.38;8541150;33;20713;-74
2022/03/20 03:17:28;;;;;;;28.30;16.97;;;;;;;2.06;47.87;102165.38;8565490;33;20244;-74
2022/03/20 03:22:33;;;;;;;34.60;17.57;;;;;;;2.03;47.79;102165.44;8570880;33;20892;-73
2022/03/20 03:27:36;;;;;;;30.33;16.77;;;;;;;2.04;47.88;102163.66;8566948;33;20268;-74
2022/03/20 03:32:40;;;;;;;29.43;16.33;;;;;;;1.97;47.86;102151.41;8561747;33;20307;-73
2022/03/20 03:37:44;;;;;;;30.37;16.90;;;;;;;1.92;47.48;102146.16;8537573;33;20579;-73
2022/03/20 03:42:47;;;;;;;31.83;17.93;;;;;;;1.83;47.43;102138.38;8578837;33;20855;-73
2022/03/20 03:47:53;;;;;;;33.40;17.40;;;;;;;1.85;47.58;102124.22;8534804;33;20427;-73
2022/03/20 03:52:57;;;;;;;26.70;14.40;;;;;;;1.81;47.49;102114.56;8605040;33;20310;-73
2022/03/20 03:58:00;;;;;;;35.07;16.60;;;;;;;1.77;47.34;102112.84;8603273;33;21065;-73
2022/03/20 04:03:03;;;;;;;27.90;17.70;;;;;;;1.77;47.28;102104.91;8606674;33;20915;-73
2022/03/20 04:08:10;;;;;;;26.50;17.17;;;;;;;1.69;47.39;102107.69;8606579;33;20479;-73
2022/03/20 04:13:13;;;;;;;26.50;15.60;;;;;;;1.59;47.50;102087.56;8604320;33;21882;-73
2022/03/20 04:18:17;;;;;;;28.60;16.47;;;;;;;1.58;47.53;102087.56;8575827;33;20971;-73
2022/03/20 04:23:48;;;;;;;29.23;17.10;;;;;;;1.62;47.30;102074.25;8535188;33;20397;-73
2022/03/20 04:28:53;;;;;;;28.97;16.40;;;;;;;1.60;47.27;102086.66;8526452;33;20444;-73
2022/03/20 04:33:57;;;;;;;28.47;16.30;;;;;;;1.58;47.35;102099.03;8544917;33;20842;-73
2022/03/20 04:39:03;;;;;;;33.33;17.13;;;;;;;1.59;47.21;102099.91;8523686;33;20131;-73
2022/03/20 04:44:07;;;;;;;31.47;18.20;;;;;;;1.42;47.60;102090.44;8583200;33;20137;-73
2022/03/20 04:59:53;;;;;;;34.70;17.10;;;;;;;1.30;48.22;102065.97;8599009;33;20265;-73
2022/03/20 05:04:56;;;;;;;28.13;15.63;;;;;;;1.21;48.77;102059.03;8601036;33;20444;-73
2022/03/20 05:15:21;;;;;;;34.53;17.30;;;;;;;1.02;48.74;102053.16;8497403;33;20492;-73
2022/03/20 05:20:25;;;;;;;33.80;19.17;;;;;;;1.13;49.27;102039.75;8604838;33;20411;-73
2022/03/20 05:25:30;;;;;;;27.40;16.30;;;;;;;1.11;48.99;102036.25;8615740;33;20561;-73
2022/03/20 05:30:34;;;;;;;32.23;18.43;;;;;;;0.89;48.80;102036.56;8616388;33;20990;-73
2022/03/20 05:35:37;;;;;;;30.20;18.57;;;;;;;1.24;48.23;102040.47;8535986;33;20365;-73
2022/03/20 05:40:44;;;;;;;33.73;19.03;;;;;;;1.27;48.19;102043.91;8556431;33;20954;-73
2022/03/20 05:45:47;;;;;;;31.80;17.73;;;;;;;1.27;48.01;102041.28;8600941;33;20155;-73
2022/03/20 05:50:51;;;;;;;34.70;18.77;;;;;;;1.30;47.86;102047.44;8597433;33;20191;-73
2022/03/20 06:01:16;;;;;;;36.23;19.47;;;;;;;1.47;48.45;102035.63;8597843;33;21777;-73
2022/03/20 06:06:19;;;;;;;30.03;17.83;;;;;;;1.40;48.46;102023.41;8599384;33;20484;-73
2022/03/20 06:11:24;;;;;;;31.83;18.67;;;;;;;1.51;48.13;102033.84;8595626;33;20439;-73
2022/03/20 06:16:28;;;;;;;35.23;19.03;;;;;;;1.63;48.50;102028.31;8544448;33;20419;-73
2022/03/20 06:21:31;;;;;;;29.57;16.77;;;;;;;1.75;48.29;102031.63;8525025;33;21977;-73
2022/03/20 06:26:36;;;;;;;33.93;18.77;;;;;;;1.92;47.66;102043.69;8525347;33;20950;-73
2022/03/20 06:31:39;;;;;;;37.13;20.63;;;;;;;2.09;47.36;102047.81;8525902;33;20411;-74
2022/03/20 06:36:42;;;;;;;34.80;19.17;;;;;;;2.33;47.03;102049.09;8524174;33;20354;-73
2022/03/20 06:41:47;;;;;;;34.13;19.43;;;;;;;2.44;46.49;102039.16;8526260;33;20384;-73
2022/03/20 06:46:50;;;;;;;33.13;18.97;;;;;;;2.63;46.62;102038.78;8525568;33;20424;-72
2022/03/20 06:51:53;;;;;;;31.80;19.10;;;;;;;2.71;45.94;102034.16;8531024;33;20464;-73
2022/03/20 06:56:57;;;;;;;35.80;19.87;;;;;;;2.90;45.81;102034.63;8532903;33;20806;-73
2022/03/20 07:02:00;;;;;;;37.53;20.50;;;;;;;2.98;45.42;102025.59;8538170;33;20419;-73
2022/03/20 07:07:04;;;;;;;33.53;19.13;;;;;;;3.06;44.94;102014.78;8536397;33;21139;-73
2022/03/20 07:12:10;;;;;;;33.37;19.37;;;;;;;3.24;45.65;102008.19;8533865;33;20301;-73
2022/03/20 07:17:16;;;;;;;32.72;19.17;;;;;;;3.90;44.67;102002.00;8528482;33;20437;-73
2022/03/20 07:22:20;;;;;;;31.85;18.65;;;;;;;4.28;43.54;102010.72;8526029;33;20473;-73
2022/03/20 07:32:46;;;;;;;36.33;20.90;;;;;;;5.09;42.38;101982.53;8535116;33;21229;-74
2022/03/20 07:37:49;;;;;;;34.20;20.23;;;;;;;5.14;42.22;101969.94;8529414;33;20409;-73
2022/03/20 07:42:55;;;;;;;34.03;19.88;;;;;;;4.89;41.81;101970.69;8528792;33;20422;-73
2022/03/20 07:47:58;;;;;;;36.05;20.80;;;;;;;4.68;42.24;101960.72;8527335;33;20442;-73
2022/03/20 07:53:02;;;;;;;39.58;19.15;;;;;;;5.12;41.73;101969.09;8527224;33;20411;-73
2022/03/20 07:58:06;;;;;;;35.65;20.83;;;;;;;5.43;41.69;101966.25;8526275;33;22420;-73
2022/03/20 08:03:10;;;;;;;36.58;21.27;;;;;;;5.43;41.65;101964.50;8527272;33;20147;-73
2022/03/20 08:08:16;;;;;;;36.63;20.85;;;;;;;5.09;41.60;101963.88;8527542;33;20405;-73
2022/03/20 08:13:20;;;;;;;32.83;19.65;;;;;;;4.87;42.46;101926.41;8527318;33;20465;-73
2022/03/20 08:18:23;;;;;;;38.65;20.50;;;;;;;4.48;43.25;101924.94;8526650;33;20155;-73
2022/03/20 08:23:26;;;;;;;37.03;21.70;;;;;;;4.66;43.24;101898.66;8501896;33;21121;-73
2022/03/20 08:28:32;;;;;;;36.30;19.10;;;;;;;5.40;41.78;101894.41;8525924;33;20530;-73
2022/03/20 08:33:35;;;;;;;34.15;19.30;;;;;;;5.72;41.18;101888.78;8526148;33;20160;-73
2022/03/20 08:38:39;;;;;;;35.65;20.23;;;;;;;6.10;40.52;101897.16;8527258;33;20417;-72
2022/03/20 08:43:44;;;;;;;39.92;21.58;;;;;;;6.32;39.94;101893.66;8526830;33;20147;-72
2022/03/20 08:48:47;;;;;;;40.30;20.58;;;;;;;6.75;40.31;101887.47;8546062;33;20140;-72
2022/03/20 08:53:50;;;;;;;35.80;21.58;;;;;;;6.90;40.11;101902.00;8594329;33;20149;-73
2022/03/20 08:58:54;;;;;;;33.38;19.65;;;;;;;7.02;39.56;101903.28;8593505;33;20292;-72
2022/03/20 09:03:57;;;;;;;34.80;19.23;;;;;;;7.32;39.63;101897.59;8528075;33;20471;-72
2022/03/20 09:09:00;;;;;;;36.47;20.67;;;;;;;7.18;39.36;101909.72;8524736;33;20461;-73
2022/03/20 09:14:06;;;;;;;32.40;18.30;;;;;;;7.75;38.29;101893.03;8524695;33;20406;-73
2022/03/20 09:19:10;;;;;;;35.20;19.67;;;;;;;8.13;38.96;101893.94;8499654;33;20411;-73
2022/03/20 09:24:15;;;;;;;33.78;19.90;;;;;;;8.53;37.60;101874.19;8523542;33;20404;-72
2022/03/20 09:29:20;;;;;;;33.67;20.80;;;;;;;8.70;37.34;101867.13;8524662;33;20772;-73
2022/03/20 09:34:23;;;;;;;39.30;21.63;;;;;;;8.40;37.27;101865.84;8525701;33;21979;-72
2022/03/20 09:39:26;;;;;;;35.13;22.33;;;;;;;8.67;37.75;101853.91;8523164;33;20420;-72
2022/03/20 09:44:33;;;;;;;30.48;19.38;;;;;;;8.78;36.95;101852.41;8523408;33;20409;-72
2022/03/20 09:49:37;;;;;;;35.08;22.10;;;;;;;9.31;36.04;101853.28;8523616;33;20396;-72
2022/03/20 09:54:41;;;;;;;31.98;19.77;;;;;;;8.78;36.49;101854.22;8520341;33;20160;-73
2022/03/20 09:59:46;;;;;;;34.88;22.45;;;;;;;8.70;37.58;101835.84;8520127;33;20640;-73
2022/03/20 10:04:54;;;;;;;34.65;21.20;;;;;;;9.37;36.50;101842.22;8524941;33;20420;-72
2022/03/20 10:10:13;;;;;;;34.83;20.83;;;;;;;10.11;35.67;101854.34;8523454;33;20139;-71
2022/03/20 10:15:31;;;;;;;33.53;20.45;;;;;;;10.03;36.38;101845.84;8524239;33;20432;-72
2022/03/20 10:20:41;;;;;;;36.05;20.85;;;;;;;10.21;35.79;101842.16;8522701;33;20533;-72
2022/03/20 10:25:52;;;;;;;29.30;18.35;;;;;;;10.59;35.02;101848.00;8516726;33;20128;-72
2022/03/20 10:31:01;;;;;;;29.23;18.13;;;;;;;10.74;35.52;101838.19;8526197;33;20166;-73
2022/03/20 10:36:14;;;;;;;29.45;19.95;;;;;;;11.00;34.80;101833.09;8525941;33;20902;-72
2022/03/20 10:41:20;;;;;;;34.88;20.83;;;;;;;11.37;34.28;101812.91;8524819;33;20441;-72
2022/03/20 10:46:26;;;;;;;34.58;20.75;;;;;;;11.75;34.48;101768.41;8527727;33;20477;-73
2022/03/20 10:51:41;;;;;;;34.10;20.85;;;;;;;11.44;34.36;101768.53;8528379;33;20558;-73
2022/03/20 10:56:54;;;;;;;32.75;19.42;;;;;;;12.17;32.85;101757.50;8530085;33;21107;-73
2022/03/20 11:01:59;;;;;;;32.25;21.05;;;;;;;11.95;32.85;101760.75;8542817;33;20161;-73
2022/03/20 11:07:07;;;;;;;27.87;17.63;;;;;;;11.94;33.48;101767.09;8536404;33;20403;-73
2022/03/20 11:12:15;;;;;;;30.55;19.15;;;;;;;11.94;32.85;101783.28;8529585;33;22250;-72
2022/03/20 11:17:22;;;;;;;31.75;19.05;;;;;;;12.22;33.28;101777.91;8526371;33;20155;-73
2022/03/20 11:22:27;;;;;;;34.55;21.00;;;;;;;12.45;32.43;101771.00;8528904;33;20389;-73
2022/03/20 11:27:32;;;;;;;27.15;17.10;;;;;;;12.48;32.42;101771.69;8527868;33;20350;-73
2022/03/20 11:32:38;;;;;;;32.03;18.83;;;;;;;12.67;32.41;101754.25;8528696;33;20477;-72
2022/03/20 11:37:44;;;;;;;30.52;20.40;;;;;;;12.41;31.93;101772.19;8528123;33;20530;-72
2022/03/20 11:42:48;;;;;;;30.08;20.42;;;;;;;13.38;31.45;101777.22;8528834;33;20440;-73
2022/03/20 11:48:13;;;;;;;34.88;19.85;;;;;;;13.48;32.64;101744.06;8527813;33;20427;-71
2022/03/20 11:53:27;;;;;;;35.10;20.52;;;;;;;13.54;30.76;101785.09;8527967;33;20956;-72
2022/03/20 11:58:38;;;;;;;29.92;19.65;;;;;;;13.02;30.78;101779.66;8528086;33;20500;-72
2022/03/20 12:04:04;;;;;;;30.40;20.38;;;;;;;13.93;31.55;101771.41;8528000;33;21868;-73
2022/03/20 12:10:14;;;;;;;26.88;17.65;;;;;;;13.83;30.70;101761.38;8527693;33;20508;-73
2022/03/20 12:15:20;;;;;;;29.95;17.02;;;;;;;13.91;30.37;101746.34;8438607;33;20434;-73
2022/03/20 12:21:05;;;;;;;29.20;21.05;;;;;;;13.97;30.86;101760.38;8468576;33;20663;-73
2022/03/20 12:26:34;;;;;;;32.30;20.23;;;;;;;15.09;29.85;101743.75;8527442;33;20448;-72
2022/03/20 12:31:55;;;;;;;33.00;20.25;;;;;;;15.12;29.34;101730.84;8526876;33;20413;-72
2022/03/20 12:37:42;;;;;;;31.38;22.15;;;;;;;13.73;30.52;101720.66;8526403;33;20896;-72
2022/03/20 12:42:59;;;;;;;32.67;19.65;;;;;;;14.64;30.83;101717.44;8502076;33;20412;-73
2022/03/20 12:48:05;;;;;;;32.03;19.70;;;;;;;14.52;30.65;101713.00;8525318;33;20986;-72
2022/03/20 12:53:14;;;;;;;29.65;21.33;;;;;;;14.38;30.97;101690.59;8526832;33;20986;-72
2022/03/20 12:58:19;;;;;;;29.17;19.20;;;;;;;13.70;31.47;101694.75;8525975;33;20411;-72
2022/03/20 13:03:25;;;;;;;30.92;19.77;;;;;;;13.82;31.40;101692.13;8525648;33;20285;-72
2022/03/20 13:08:32;;;;;;;29.58;18.70;;;;;;;14.24;30.92;101687.19;8525747;33;20864;-72
2022/03/20 13:13:37;;;;;;;34.47;21.17;;;;;;;14.69;30.50;101690.91;8530504;33;20537;-72
2022/03/20 13:18:40;;;;;;;30.45;20.25;;;;;;;14.91;30.15;101686.53;8530632;33;20753;-71
2022/03/20 13:23:47;;;;;;;35.88;19.98;;;;;;;15.47;30.03;101681.16;8526115;33;20210;-71
2022/03/20 13:28:50;;;;;;;27.38;19.17;;;;;;;16.20;28.34;101670.59;8525783;33;20518;-73
2022/03/20 13:33:59;;;;;;;29.48;20.02;;;;;;;16.57;28.28;101674.63;8525532;33;20424;-73
2022/03/20 13:39:10;;;;;;;29.10;20.02;;;;;;;17.11;28.20;101666.34;8525176;33;20894;-72
2022/03/20 13:44:15;;;;;;;30.67;20.40;;;;;;;16.70;28.23;101660.00;8500325;33;20414;-72
2022/03/20 13:49:18;;;;;;;34.88;19.67;;;;;;;17.38;27.39;101663.06;8524367;33;20417;-72
2022/03/20 13:54:24;;;;;;;29.42;20.52;;;;;;;18.28;27.02;101640.31;8524164;33;20222;-72
2022/03/20 13:59:30;;;;;;;31.33;19.90;;;;;;;17.30;27.67;101661.03;8498834;33;20274;-72
2022/03/20 14:04:37;;;;;;;29.75;20.90;;;;;;;17.07;27.87;101648.63;8523779;33;20421;-72
2022/03/20 14:09:41;;;;;;;31.38;20.42;;;;;;;18.27;27.39;101661.22;8524099;33;20466;-73
2022/03/20 14:14:46;;;;;;;30.73;20.30;;;;;;;16.71;28.84;101667.16;8523343;33;20399;-72
2022/03/20 14:19:51;;;;;;;27.75;18.88;;;;;;;17.49;27.91;101654.81;8523181;33;20416;-72
2022/03/20 14:24:57;;;;;;;32.25;20.20;;;;;;;17.55;27.98;101662.41;8523726;33;21085;-72
2022/03/20 14:40:46;;;;;;;30.23;20.33;;;;;;;17.34;28.55;101624.47;8525595;33;20219;-71
2022/03/20 14:45:50;;;;;;;25.58;17.67;;;;;;;17.08;28.81;101621.31;8524443;33;20487;-72
2022/03/20 14:50:53;;;;;;;28.63;18.90;;;;;;;16.43;30.64;101609.88;8523446;33;20423;-73
2022/03/20 14:55:58;;;;;;;29.65;19.88;;;;;;;16.10;30.80;101610.91;8524678;33;20514;-72
2022/03/20 15:01:01;;;;;;;31.10;19.10;;;;;;;15.65;31.29;101608.34;8523876;33;20755;-72
2022/03/20 15:06:05;;;;;;;30.48;19.02;;;;;;;15.44;31.67;101616.41;8522515;33;20405;-72
2022/03/20 15:11:25;;;;;;;32.22;19.80;;;;;;;15.66;31.32;101610.06;8522787;33;20462;-72
2022/03/20 15:16:29;;;;;;;33.40;18.88;;;;;;;15.17;31.82;101587.88;8525520;33;20446;-72
2022/03/20 15:21:32;;;;;;;30.15;19.45;;;;;;;15.27;31.63;101596.94;8527450;33;20138;-72
2022/03/20 15:26:38;;;;;;;31.23;19.73;;;;;;;15.01;31.95;101609.06;8527618;33;20423;-72
2022/03/20 15:31:46;;;;;;;29.63;17.65;;;;;;;14.96;31.46;101600.44;8526425;33;20928;-72
2022/03/20 15:36:51;;;;;;;29.27;18.10;;;;;;;14.21;32.59;101599.09;8528623;33;20417;-72
2022/03/20 15:41:55;;;;;;;27.58;19.33;;;;;;;13.94;33.20;101605.63;8530488;33;20510;-72
2022/03/20 15:46:58;;;;;;;28.20;19.13;;;;;;;14.20;32.59;101613.56;8526537;33;20495;-72
2022/03/20 15:52:02;;;;;;;30.92;18.90;;;;;;;14.09;33.20;101613.53;8526908;33;20267;-71
2022/03/20 15:57:06;;;;;;;34.50;22.77;;;;;;;13.61;33.90;101624.38;8512483;33;20388;-72
2022/03/20 16:02:12;;;;;;;27.73;19.65;;;;;;;13.24;34.05;101627.91;8526550;33;20486;-72
2022/03/20 16:07:15;;;;;;;28.60;18.20;;;;;;;13.47;34.01;101639.75;8526516;33;20406;-72
2022/03/20 16:12:19;;;;;;;25.33;17.80;;;;;;;13.08;34.48;101637.22;8489748;33;20422;-72
2022/03/20 16:17:23;;;;;;;31.52;18.23;;;;;;;13.07;34.79;101638.19;8496426;33;20388;-72
2022/03/20 16:22:26;;;;;;;29.25;17.85;;;;;;;12.56;34.85;101634.56;8501400;33;20393;-72
2022/03/20 16:32:50;;;;;;;29.13;17.38;;;;;;;12.22;35.35;101648.59;8482869;33;20205;-72
2022/03/20 16:37:53;;;;;;;28.23;17.02;;;;;;;12.03;35.92;101647.13;8524496;33;20935;-72
2022/03/20 16:42:58;;;;;;;28.52;17.35;;;;;;;11.97;35.87;101642.16;8520634;33;21265;-72
2022/03/20 16:48:02;;;;;;;30.08;19.73;;;;;;;12.02;35.96;101658.03;8523952;33;20431;-71
2022/03/20 16:53:05;;;;;;;29.33;17.65;;;;;;;12.22;36.01;101656.69;8526000;33;20227;-72
2022/03/20 16:58:11;;;;;;;24.70;16.70;;;;;;;11.83;36.60;101658.38;8531572;33;20144;-72
2022/03/20 17:03:15;;;;;;;29.45;17.50;;;;;;;11.90;36.35;101659.69;8539253;33;20414;-72
2022/03/20 17:08:20;;;;;;;28.25;18.40;;;;;;;11.78;36.69;101656.00;8537919;33;20421;-72
2022/03/20 17:13:24;;;;;;;28.92;18.08;;;;;;;11.80;36.33;101663.97;8526708;33;20463;-72
2022/03/20 17:18:28;;;;;;;25.15;16.55;;;;;;;11.85;36.49;101661.84;8526402;33;20507;-72
2022/03/20 17:23:31;;;;;;;26.98;17.27;;;;;;;11.73;36.86;101666.19;8524741;33;20413;-72
2022/03/20 17:28:35;;;;;;;26.40;16.60;;;;;;;11.69;37.00;101673.63;8526931;33;20507;-73
2022/03/20 17:33:39;;;;;;;29.17;17.75;;;;;;;11.58;36.63;101673.47;8524416;33;20531;-73
2022/03/20 17:38:42;;;;;;;27.50;17.60;;;;;;;11.49;37.09;101669.53;8522205;33;20454;-72
2022/03/20 17:43:46;;;;;;;26.90;17.30;;;;;;;11.57;37.11;101679.78;8523621;33;20167;-73
2022/03/20 17:48:49;;;;;;;27.45;17.17;;;;;;;11.48;37.21;101697.38;8523521;33;20424;-73
2022/03/20 17:53:52;;;;;;;27.85;15.55;;;;;;;11.21;37.22;101693.75;8524434;33;20407;-73
2022/03/20 17:59:23;;;;;;;27.67;17.17;;;;;;;11.36;36.87;101698.19;8523855;33;20377;-72
2022/03/20 18:09:41;;;;;;;25.80;16.90;;;;;;;11.40;36.40;101702.41;8525409;33;20429;-73
2022/03/20 18:14:45;;;;;;;26.20;16.67;;;;;;;11.28;36.50;101712.13;8522955;33;20444;-73
2022/03/20 18:19:48;;;;;;;24.77;15.73;;;;;;;11.21;36.69;101708.06;8523767;33;20494;-72
2022/03/20 18:24:51;;;;;;;22.25;15.48;;;;;;;10.80;36.79;101714.16;8524206;33;20878;-73
2022/03/20 18:29:56;;;;;;;25.75;15.80;;;;;;;11.01;36.89;101721.88;8524328;33;20420;-72
2022/03/20 18:34:59;;;;;;;26.55;16.40;;;;;;;11.01;36.53;101716.50;8526254;33;20502;-73
2022/03/20 18:40:03;;;;;;;25.25;14.95;;;;;;;10.81;36.71;101723.97;8533121;33;20515;-73
2022/03/20 18:45:10;;;;;;;25.33;15.35;;;;;;;10.92;36.46;101719.78;8524152;33;20457;-72
2022/03/20 18:50:14;;;;;;;27.23;14.50;;;;;;;10.67;36.92;101723.06;8524438;33;21230;-72
2022/03/20 18:55:19;;;;;;;22.65;14.82;;;;;;;10.71;37.14;101735.38;8529731;33;20497;-73
2022/03/20 19:00:24;;;;;;;23.83;15.15;;;;;;;10.55;37.19;101732.72;8529163;33;20504;-73
2022/03/20 19:05:28;;;;;;;23.02;14.00;;;;;;;10.64;37.28;101724.13;8625627;33;20611;-73
2022/03/20 19:10:31;;;;;;;23.83;16.20;;;;;;;10.60;37.40;101736.88;8623806;33;20266;-73
2022/03/20 19:15:36;;;;;;;24.55;15.15;;;;;;;10.40;37.80;101731.84;8603327;33;20157;-75
2022/03/20 19:20:39;;;;;;;23.65;14.35;;;;;;;10.46;37.73;101733.28;8626647;33;20190;-74
2022/03/20 19:25:42;;;;;;;23.30;15.00;;;;;;;10.49;37.82;101739.34;8628116;33;20497;-73
2022/03/20 19:30:47;;;;;;;21.77;14.00;;;;;;;10.30;37.86;101744.06;8629120;33;20418;-75
2022/03/20 19:41:11;;;;;;;22.95;14.10;;;;;;;10.23;38.03;101740.88;8622528;33;20369;-74
2022/03/20 19:46:15;;;;;;;20.98;14.40;;;;;;;10.07;37.82;101756.16;8620331;33;20197;-73
2022/03/20 19:51:18;;;;;;;19.90;12.77;;;;;;;10.10;38.26;101756.81;8607615;33;20638;-72
2022/03/20 19:56:21;;;;;;;23.15;13.95;;;;;;;9.97;38.42;101750.41;8607473;33;20439;-73
2022/03/20 20:01:26;;;;;;;23.10;13.10;;;;;;;10.12;38.11;101762.09;8607039;33;20415;-75
2022/03/20 20:06:29;;;;;;;21.45;14.00;;;;;;;10.02;38.15;101763.59;8609912;33;20507;-74
2022/03/20 20:11:32;;;;;;;22.77;13.27;;;;;;;9.90;37.98;101765.13;8611021;33;21361;-74
2022/03/20 20:16:37;;;;;;;24.10;13.85;;;;;;;9.85;38.08;101773.44;8607804;33;20459;-74
2022/03/20 20:21:40;;;;;;;21.85;13.23;;;;;;;9.93;38.46;101781.94;8607231;33;20171;-74
2022/03/20 20:26:43;;;;;;;22.15;12.55;;;;;;;9.70;38.29;101776.94;8606072;33;20285;-74
2022/03/20 20:31:49;;;;;;;21.50;13.38;;;;;;;9.60;38.46;101762.31;8605987;33;20405;-73
2022/03/20 20:36:53;;;;;;;18.80;12.63;;;;;;;9.60;38.54;101779.28;8603303;33;20139;-73
2022/03/20 20:41:57;;;;;;;19.80;13.55;;;;;;;9.49;38.43;101779.88;8604400;33;21938;-74
2022/03/20 20:47:01;;;;;;;19.95;12.65;;;;;;;9.35;38.89;101766.34;8578476;33;20399;-73
2022/03/20 20:52:05;;;;;;;22.85;13.50;;;;;;;9.16;39.01;101782.56;8604297;33;20425;-72
2022/03/20 20:57:08;;;;;;;22.10;12.90;;;;;;;9.17;39.10;101781.59;8603295;33;20182;-73
2022/03/20 21:02:13;;;;;;;21.30;12.88;;;;;;;9.20;38.73;101772.53;8602117;33;20422;-73
2022/03/20 21:12:36;;;;;;;22.15;13.63;;;;;;;9.16;38.52;101779.00;8607287;33;21109;-72
2022/03/20 21:17:41;;;;;;;20.27;13.98;;;;;;;9.14;38.77;101784.44;8580494;33;20466;-72
2022/03/20 21:22:45;;;;;;;22.17;12.23;;;;;;;9.09;39.15;101780.28;8602167;33;20147;-73
2022/03/20 21:27:50;;;;;;;18.88;12.88;;;;;;;8.94;39.51;101784.59;8604125;33;20513;-73
2022/03/20 21:32:55;;;;;;;20.20;12.82;;;;;;;9.00;39.40;101782.50;8605241;33;20437;-73
2022/03/20 21:37:58;;;;;;;22.27;12.02;;;;;;;8.79;39.57;101784.47;8603922;33;21049;-73
2022/03/20 21:43:05;;;;;;;22.80;12.98;;;;;;;8.82;39.77;101788.78;8602649;33;20431;-72
2022/03/20 21:48:10;;;;;;;20.85;12.40;;;;;;;8.72;40.26;101787.53;8601492;33;20497;-73
2022/03/20 21:53:15;;;;;;;21.02;12.85;;;;;;;8.49;41.13;101802.09;8599263;33;20509;-73
2022/03/20 21:58:19;;;;;;;22.50;12.82;;;;;;;8.24;41.07;101797.06;8598780;33;20958;-73
2022/03/20 22:03:23;;;;;;;17.73;11.88;;;;;;;8.15;40.90;101791.19;8599870;33;20408;-73
2022/03/20 22:08:26;;;;;;;21.90;12.75;;;;;;;8.17;40.80;101797.34;8599548;33;20472;-72
2022/03/20 22:13:29;;;;;;;19.02;12.05;;;;;;;8.06;40.91;101799.66;8600002;33;20458;-73
2022/03/20 22:18:34;;;;;;;20.65;12.20;;;;;;;8.04;41.37;101788.19;8594930;33;20823;-73
2022/03/20 22:23:38;;;;;;;19.92;11.77;;;;;;;8.02;41.34;101789.19;8596540;33;22280;-74
2022/03/20 22:28:43;;;;;;;20.50;12.30;;;;;;;7.92;41.54;101799.44;8596051;33;20217;-74
2022/03/20 22:33:48;;;;;;;18.67;12.13;;;;;;;8.00;41.69;101802.63;8596144;33;21099;-73
2022/03/20 22:38:57;;;;;;;18.80;11.10;;;;;;;7.81;41.43;101805.31;8596306;33;20406;-73
2022/03/20 22:44:01;;;;;;;19.83;12.05;;;;;;;7.82;41.52;101806.19;8593903;33;20533;-73
2022/03/20 22:54:27;;;;;;;20.98;11.55;;;;;;;7.87;41.85;101814.84;8579005;33;20189;-73
2022/03/20 22:59:30;;;;;;;17.33;11.02;;;;;;;7.88;41.64;101805.91;8562151;33;20457;-74
2022/03/20 23:04:35;;;;;;;20.17;11.32;;;;;;;7.84;41.35;101818.53;8593118;33;20429;-73
2022/03/20 23:09:38;;;;;;;18.70;11.55;;;;;;;7.92;41.61;101829.75;8612244;33;20222;-73
2022/03/20 23:14:45;;;;;;;18.10;10.88;;;;;;;7.94;40.98;101833.22;8604312;33;20162;-73
2022/03/20 23:19:50;;;;;;;18.92;11.50;;;;;;;8.08;40.97;101832.56;8601757;33;20426;-73
2022/03/20 23:24:53;;;;;;;17.90;10.93;;;;;;;8.13;40.43;101830.56;8601417;33;20274;-72
2022/03/20 23:29:56;;;;;;;19.90;11.65;;;;;;;7.99;40.37;101837.50;8594147;33;20415;-73
2022/03/20 23:35:01;;;;;;;18.27;11.68;;;;;;;8.16;40.36;101857.16;8575087;33;20419;-73
2022/03/20 23:40:06;;;;;;;17.48;11.25;;;;;;;8.14;40.23;101856.38;8591027;33;22268;-73
2022/03/20 23:45:09;;;;;;;19.05;10.90;;;;;;;8.13;40.19;101851.97;8591468;33;20136;-73
2022/03/20 23:50:14;;;;;;;18.05;11.35;;;;;;;8.09;40.57;101845.03;8558255;33;20189;-73
2022/03/20 23:55:17;;;;;;;19.50;11.90;;;;;;;8.10;40.26;101853.94;8588916;33;20435;-74
